Time;durP1;ratioP1;P1;durP2;ratioP2;P2;SDS_P1;SDS_P2;PMS_P1;PMS_P2;Temp;Humidity;BMP_temperature;BMP_pressure;BME280_temperature;BME280_humidity;BME280_pressure;Samples;Min_cycle;Max_cycle;Signal;HPM_P1;HPM_P2
2022/01/24 00:00:31;;;;;;;10.25;5.95;;;5.30;99.90;;;;;;5015622;28;20091;-87
2022/01/24 00:02:57;;;;;;;9.80;6.30;;;5.30;99.90;;;;;;5015135;28;20053;-87
2022/01/24 00:05:23;;;;;;;8.02;5.70;;;5.40;99.90;;;;;;5023504;28;20049;-88
2022/01/24 00:07:49;;;;;;;9.45;5.80;;;5.30;99.90;;;;;;5043450;28;20132;-89
2022/01/24 00:10:19;;;;;;;10.57;6.65;;;5.40;99.90;;;;;;5051571;28;20051;-88
2022/01/24 00:13:56;;;;;;;10.43;7.00;;;5.30;99.90;;;;;;5050130;28;20402;-88
2022/01/24 00:15:58;;;;;;;9.18;6.22;;;5.30;99.90;;;;;;5042317;28;20053;-88
2022/01/24 00:26:45;;;;;;;10.27;5.97;;;5.30;99.90;;;;;;5001583;28;20045;-89
2022/01/24 00:26:51;;;;;;;9.30;6.50;;;5.30;99.90;;;;;;5081736;28;20067;-87
2022/01/24 00:29:19;;;;;;;11.57;6.72;;;5.20;99.90;;;;;;5050692;28;20037;-88
2022/01/24 00:31:46;;;;;;;10.73;6.80;;;5.20;99.90;;;;;;5065001;28;20403;-88
2022/01/24 00:34:14;;;;;;;9.48;6.93;;;5.30;99.90;;;;;;5049689;28;20049;-86
2022/01/24 00:36:40;;;;;;;10.95;7.45;;;5.30;99.90;;;;;;5047872;28;20048;-87
2022/01/24 00:39:07;;;;;;;10.02;6.85;;;5.30;99.90;;;;;;5052738;28;20525;-87
2022/01/24 00:41:43;;;;;;;9.50;6.97;;;5.20;99.90;;;;;;5032526;28;20056;-88
2022/01/24 00:46:51;;;;;;;12.30;6.95;;;5.20;99.90;;;;;;5046248;28;20111;-88
2022/01/24 00:49:35;;;;;;;10.73;6.93;;;5.20;99.90;;;;;;5030908;28;20067;-88
2022/01/24 00:54:51;;;;;;;11.30;7.18;;;5.20;99.90;;;;;;5032062;28;20092;-89
2022/01/24 00:57:19;;;;;;;12.40;7.40;;;5.20;99.90;;;;;;5047253;28;20407;-87
2022/01/24 00:59:45;;;;;;;11.02;7.10;;;5.20;99.90;;;;;;5050289;28;20398;-89
2022/01/24 01:02:11;;;;;;;10.00;7.30;;;5.20;99.90;;;;;;5048612;28;20052;-87
2022/01/24 01:07:07;;;;;;;12.32;8.18;;;5.20;99.90;;;;;;5057514;28;20087;-86
2022/01/24 01:18:15;;;;;;;10.13;7.03;;;5.20;99.90;;;;;;5047873;28;20135;-91
2022/01/24 01:21:07;;;;;;;10.80;7.35;;;5.20;99.90;;;;;;5074157;28;20345;-89
2022/01/24 01:23:33;;;;;;;12.13;7.57;;;5.10;99.90;;;;;;5066665;28;20048;-88
2022/01/24 01:26:04;;;;;;;11.23;7.45;;;5.10;99.90;;;;;;5041093;28;20124;-88
2022/01/24 01:28:31;;;;;;;12.75;7.95;;;5.10;99.90;;;;;;5047150;28;20060;-88
2022/01/24 01:31:02;;;;;;;14.05;7.72;;;5.10;99.90;;;;;;5024927;28;20056;-89
2022/01/24 01:36:20;;;;;;;11.52;7.57;;;5.10;99.90;;;;;;5033532;28;20059;-88
2022/01/24 01:39:30;;;;;;;13.82;7.57;;;5.10;99.90;;;;;;5037666;28;20140;-87
2022/01/24 01:55:41;;;;;;;11.85;7.47;;;5.10;99.90;;;;;;5050848;28;20045;-89
2022/01/24 01:58:16;;;;;;;10.90;8.02;;;5.10;99.90;;;;;;5052915;28;20064;-87
2022/01/24 02:00:44;;;;;;;13.07;8.85;;;5.10;99.90;;;;;;5053928;28;20075;-88
2022/01/24 02:03:10;;;;;;;11.90;8.10;;;5.10;99.90;;;;;;5048878;28;20110;-88
2022/01/24 02:05:37;;;;;;;11.10;7.65;;;5.10;99.90;;;;;;5058344;28;20494;-88
2022/01/24 02:08:03;;;;;;;13.57;8.48;;;5.10;99.90;;;;;;5063641;28;20049;-88
2022/01/24 02:10:32;;;;;;;12.05;8.35;;;5.10;99.90;;;;;;5040794;28;20095;-88
2022/01/24 02:12:58;;;;;;;12.35;8.10;;;5.10;99.90;;;;;;5054164;28;20045;-88
2022/01/24 02:15:39;;;;;;;15.30;8.68;;;5.00;99.90;;;;;;5044454;28;20052;-88
2022/01/24 02:18:28;;;;;;;13.15;8.60;;;5.10;99.90;;;;;;5021921;28;20048;-88
2022/01/24 02:23:40;;;;;;;12.48;8.38;;;5.00;99.90;;;;;;5053491;28;20056;-88
2022/01/24 02:26:11;;;;;;;14.27;9.38;;;5.10;99.90;;;;;;5028090;28;20049;-89
2022/01/24 02:33:52;;;;;;;14.10;9.38;;;5.10;99.90;;;;;;5068146;28;20072;-88
2022/01/24 02:36:23;;;;;;;15.02;9.70;;;5.10;99.90;;;;;;5051858;28;20045;-88
2022/01/24 02:49:30;;;;;;;13.23;8.57;;;5.10;99.90;;;;;;5049254;28;20445;-88
2022/01/24 02:52:05;;;;;;;14.90;9.80;;;5.00;99.90;;;;;;5044371;28;20048;-88
2022/01/24 02:54:32;;;;;;;14.25;9.65;;;5.00;99.90;;;;;;5046072;28;20103;-88
2022/01/24 02:57:02;;;;;;;17.90;10.35;;;5.00;99.90;;;;;;5057437;28;20053;-89
2022/01/24 02:59:28;;;;;;;14.82;10.00;;;5.10;99.90;;;;;;5038186;28;20057;-88
2022/01/24 03:01:55;;;;;;;15.23;10.40;;;5.00;99.90;;;;;;5054140;28;20135;-87
2022/01/24 03:04:21;;;;;;;17.98;10.52;;;5.10;99.90;;;;;;5059050;28;20049;-89
2022/01/24 03:06:50;;;;;;;16.13;10.65;;;5.00;99.90;;;;;;5034867;28;20390;-88
2022/01/24 03:09:16;;;;;;;17.85;10.68;;;5.00;99.90;;;;;;5044437;28;20132;-89
2022/01/24 03:14:14;;;;;;;19.15;11.18;;;5.00;99.90;;;;;;5042610;28;20072;-88
2022/01/24 03:16:39;;;;;;;18.40;11.18;;;5.00;99.90;;;;;;5046715;28;20103;-88
2022/01/24 03:19:05;;;;;;;19.10;11.15;;;5.00;99.90;;;;;;5048527;28;20045;-89
2022/01/24 03:21:31;;;;;;;19.55;12.00;;;5.00;99.90;;;;;;5032418;28;20132;-89
2022/01/24 03:23:56;;;;;;;21.67;12.80;;;5.00;99.90;;;;;;5072447;28;20056;-89
2022/01/24 03:26:22;;;;;;;25.95;13.70;;;5.10;99.90;;;;;;5058792;28;20049;-89
2022/01/24 03:28:48;;;;;;;19.08;12.02;;;5.00;99.90;;;;;;5030997;28;20049;-86
2022/01/24 03:31:13;;;;;;;20.67;12.25;;;5.00;99.90;;;;;;5050219;28;20044;-89
2022/01/24 03:33:39;;;;;;;23.48;12.45;;;5.00;99.90;;;;;;5017122;28;20049;-88
2022/01/24 03:36:05;;;;;;;20.75;12.48;;;5.00;99.90;;;;;;5067246;28;20041;-89
2022/01/24 03:38:30;;;;;;;22.65;13.43;;;5.00;99.90;;;;;;5034415;28;20037;-88
2022/01/24 03:40:56;;;;;;;21.67;13.25;;;5.00;99.90;;;;;;5027006;28;20129;-89
2022/01/24 03:43:22;;;;;;;24.92;13.60;;;5.00;99.90;;;;;;5051503;28;20878;-89
2022/01/24 03:46:09;;;;;;;19.27;11.77;;;5.00;99.90;;;;;;5016162;28;20061;-89
2022/01/24 03:48:43;;;;;;;22.00;12.73;;;5.10;99.90;;;;;;5054984;28;20080;-89
2022/01/24 03:51:10;;;;;;;21.58;13.32;;;4.90;99.90;;;;;;5044377;28;20486;-88
2022/01/24 03:53:36;;;;;;;24.50;13.60;;;4.90;99.90;;;;;;5047597;28;20525;-88
2022/01/24 03:56:03;;;;;;;23.38;12.82;;;5.00;99.90;;;;;;5033532;28;20487;-88
2022/01/24 03:58:28;;;;;;;24.25;14.02;;;5.00;99.90;;;;;;5050485;28;20460;-89
2022/01/24 04:00:55;;;;;;;22.27;14.15;;;4.90;99.90;;;;;;5018641;28;20139;-87
2022/01/24 04:03:21;;;;;;;23.50;12.65;;;4.90;99.90;;;;;;5040152;28;20566;-88
2022/01/24 04:05:47;;;;;;;23.90;13.50;;;5.00;99.90;;;;;;5032906;28;20508;-89
2022/01/24 04:08:13;;;;;;;23.63;14.55;;;4.90;99.90;;;;;;5051130;28;20043;-88
2022/01/24 04:10:44;;;;;;;25.35;14.30;;;4.90;99.90;;;;;;5052043;28;20132;-90
2022/01/24 04:19:26;;;;;;;21.63;13.40;;;4.90;99.90;;;;;;5036952;28;20132;-90
2022/01/24 04:21:35;;;;;;;22.25;14.35;;;4.90;99.90;;;;;;5036194;28;20118;-89
2022/01/24 04:24:06;;;;;;;24.95;15.45;;;5.00;99.90;;;;;;5046186;28;20049;-89
2022/01/24 04:26:34;;;;;;;23.00;14.43;;;4.90;99.90;;;;;;5033484;28;20053;-89
2022/01/24 04:29:00;;;;;;;24.08;14.55;;;4.90;99.90;;;;;;5048620;28;20045;-89
2022/01/24 04:31:27;;;;;;;24.83;14.57;;;4.90;99.90;;;;;;5046453;28;20550;-89
2022/01/24 04:33:53;;;;;;;25.95;15.82;;;4.90;99.90;;;;;;5047779;28;20057;-89
2022/01/24 04:36:20;;;;;;;24.85;15.05;;;5.00;99.90;;;;;;5033853;28;20053;-89
2022/01/24 04:38:46;;;;;;;27.13;13.82;;;4.90;99.90;;;;;;5039988;28;20061;-90
2022/01/24 04:41:24;;;;;;;25.55;14.75;;;5.00;99.90;;;;;;5012516;28;20044;-89
2022/01/24 04:44:01;;;;;;;23.10;13.60;;;4.90;99.90;;;;;;5050719;28;20041;-90
2022/01/24 04:52:23;;;;;;;24.05;13.05;;;4.90;99.90;;;;;;5046047;28;20101;-90
2022/01/24 04:54:51;;;;;;;20.33;12.00;;;4.90;99.90;;;;;;5019717;28;20049;-90
2022/01/24 04:57:24;;;;;;;24.50;14.20;;;4.90;99.90;;;;;;5048431;28;20057;-91
2022/01/24 04:59:52;;;;;;;21.13;13.07;;;4.90;99.90;;;;;;5054117;28;20048;-89
2022/01/24 05:02:20;;;;;;;21.35;13.15;;;4.90;99.90;;;;;;5041973;28;20048;-90
2022/01/24 05:04:47;;;;;;;17.10;11.50;;;5.00;99.90;;;;;;5050366;28;20051;-90
2022/01/24 05:07:13;;;;;;;21.50;12.52;;;4.90;99.90;;;;;;5049161;28;20059;-90
2022/01/24 05:10:09;;;;;;;20.50;12.63;;;4.90;99.90;;;;;;5048306;28;20076;-88
2022/01/24 05:25:48;;;;;;;21.58;12.30;;;4.80;99.90;;;;;;5047862;28;20049;-89
2022/01/24 05:28:13;;;;;;;23.10;13.55;;;4.80;99.90;;;;;;5033886;28;20124;-88
2022/01/24 05:30:39;;;;;;;22.40;13.35;;;4.80;99.90;;;;;;5033435;28;20060;-88
2022/01/24 05:33:05;;;;;;;21.55;12.60;;;4.90;99.90;;;;;;5049213;28;20508;-88
2022/01/24 05:35:31;;;;;;;20.67;13.48;;;4.80;99.90;;;;;;5053497;28;20051;-89
2022/01/24 05:37:56;;;;;;;21.88;13.57;;;4.80;99.90;;;;;;5053262;28;20057;-88
2022/01/24 05:40:22;;;;;;;21.17;13.20;;;4.90;99.90;;;;;;5037429;28;20044;-88
2022/01/24 05:42:50;;;;;;;20.65;12.98;;;4.80;99.90;;;;;;5044979;28;20059;-88
2022/01/24 05:45:16;;;;;;;22.45;13.30;;;4.80;99.90;;;;;;5028867;28;20053;-88
2022/01/24 05:47:42;;;;;;;22.67;14.15;;;4.80;99.90;;;;;;5053451;28;20045;-89
2022/01/24 05:50:08;;;;;;;21.75;12.60;;;4.80;99.90;;;;;;5043171;28;20044;-89
2022/01/24 05:52:33;;;;;;;23.55;14.43;;;4.80;99.90;;;;;;5035216;28;20045;-89
2022/01/24 05:54:59;;;;;;;23.63;14.02;;;4.80;99.90;;;;;;5019907;28;20045;-87
2022/01/24 05:57:25;;;;;;;24.38;14.15;;;4.80;99.90;;;;;;5036707;28;20054;-88
2022/01/24 05:59:51;;;;;;;24.55;12.90;;;4.80;99.90;;;;;;5020049;28;20042;-87
2022/01/24 06:02:16;;;;;;;21.27;13.00;;;4.80;99.90;;;;;;5057910;28;20512;-87
2022/01/24 06:04:42;;;;;;;23.67;13.48;;;4.90;99.90;;;;;;5047603;28;20044;-88
2022/01/24 06:07:08;;;;;;;21.88;13.80;;;4.80;99.90;;;;;;5019662;28;20051;-89
2022/01/24 06:09:33;;;;;;;25.23;14.32;;;4.80;99.90;;;;;;5060952;28;20037;-88
2022/01/24 06:11:59;;;;;;;23.05;14.35;;;4.80;99.90;;;;;;5056089;28;20047;-88
2022/01/24 06:14:25;;;;;;;23.35;13.35;;;4.80;99.90;;;;;;5039500;28;20052;-89
2022/01/24 06:16:51;;;;;;;24.10;14.43;;;4.80;99.90;;;;;;5059270;28;20047;-89
2022/01/24 06:19:16;;;;;;;26.50;15.80;;;4.80;99.90;;;;;;5052968;28;20056;-90
2022/01/24 06:21:44;;;;;;;22.63;12.90;;;4.80;99.90;;;;;;5037092;28;20098;-88
2022/01/24 06:24:10;;;;;;;19.83;13.00;;;4.80;99.90;;;;;;5041313;28;20063;-90
2022/01/24 06:26:36;;;;;;;23.23;13.07;;;4.80;99.90;;;;;;5071631;28;20056;-90
2022/01/24 06:29:03;;;;;;;21.17;13.43;;;4.90;99.90;;;;;;5060202;28;20041;-89
2022/01/24 06:31:29;;;;;;;23.98;14.05;;;4.80;99.90;;;;;;5067684;28;20044;-88
2022/01/24 06:33:55;;;;;;;22.23;13.35;;;4.90;99.90;;;;;;5062185;28;20099;-88
2022/01/24 06:36:24;;;;;;;22.42;13.52;;;4.80;99.90;;;;;;5030164;28;20493;-87
2022/01/24 06:38:50;;;;;;;25.25;14.25;;;4.70;99.90;;;;;;5051168;28;20053;-87
2022/01/24 06:41:21;;;;;;;26.50;13.88;;;4.80;99.90;;;;;;5049150;28;20045;-88
2022/01/24 06:43:47;;;;;;;24.58;15.07;;;4.80;99.90;;;;;;5048907;28;20053;-87
2022/01/24 06:46:13;;;;;;;24.00;14.50;;;4.90;99.90;;;;;;5048018;28;20099;-88
2022/01/24 06:48:39;;;;;;;23.60;14.18;;;4.80;99.90;;;;;;5062901;28;20116;-88
2022/01/24 06:51:10;;;;;;;25.17;13.85;;;4.80;99.90;;;;;;5019711;28;20128;-88
2022/01/24 06:53:40;;;;;;;24.25;14.25;;;4.80;99.90;;;;;;5044142;28;20072;-89
2022/01/24 06:56:09;;;;;;;26.00;14.88;;;4.80;99.90;;;;;;5055624;28;20045;-88
2022/01/24 06:58:40;;;;;;;27.65;15.23;;;4.80;99.90;;;;;;5053453;28;20086;-90
2022/01/24 07:01:10;;;;;;;25.70;14.65;;;4.80;99.90;;;;;;5050927;28;20128;-90
2022/01/24 07:03:36;;;;;;;25.63;14.68;;;4.80;99.90;;;;;;5049987;28;20036;-89
2022/01/24 07:06:07;;;;;;;29.95;15.63;;;4.80;99.90;;;;;;5052994;28;20052;-89
2022/01/24 07:08:35;;;;;;;27.52;15.35;;;4.80;99.90;;;;;;5069305;28;20400;-90
2022/01/24 07:11:01;;;;;;;26.92;15.82;;;4.80;99.90;;;;;;5053522;28;20122;-89
2022/01/24 07:13:30;;;;;;;27.52;15.18;;;4.80;99.90;;;;;;5036733;28;20052;-89
2022/01/24 07:16:03;;;;;;;27.65;16.60;;;4.80;99.90;;;;;;5036732;28;20417;-90
2022/01/24 07:21:00;;;;;;;29.70;17.63;;;4.80;99.90;;;;;;5052809;28;20060;-89
2022/01/24 07:23:26;;;;;;;28.13;15.75;;;4.90;99.90;;;;;;5052972;28;20394;-90
2022/01/24 07:25:55;;;;;;;25.60;15.40;;;4.80;99.90;;;;;;5036065;28;20045;-89
2022/01/24 07:28:26;;;;;;;28.65;16.10;;;4.80;99.90;;;;;;5052847;28;20114;-89
2022/01/24 07:30:55;;;;;;;27.60;16.15;;;4.80;99.90;;;;;;5035133;28;20140;-90
2022/01/24 07:33:32;;;;;;;30.10;17.42;;;4.80;99.90;;;;;;5049788;28;20041;-86
2022/01/24 07:35:58;;;;;;;30.15;15.50;;;4.80;99.90;;;;;;5015059;28;20055;-88
2022/01/24 07:38:28;;;;;;;25.55;16.73;;;4.80;99.90;;;;;;5031862;28;20044;-88
2022/01/24 07:40:59;;;;;;;29.05;15.73;;;4.80;99.90;;;;;;5034969;28;20056;-88
2022/01/24 07:43:27;;;;;;;27.48;15.38;;;4.80;99.90;;;;;;5034889;28;20059;-88
2022/01/24 07:45:53;;;;;;;28.50;16.98;;;4.80;99.90;;;;;;5050973;28;20045;-88
2022/01/24 07:48:19;;;;;;;30.00;16.67;;;4.80;99.90;;;;;;5033749;28;20055;-87
2022/01/24 07:50:47;;;;;;;30.40;16.05;;;4.90;99.90;;;;;;5052196;28;20044;-88
2022/01/24 07:53:15;;;;;;;30.27;17.38;;;4.80;99.90;;;;;;5044496;28;20518;-88
2022/01/24 07:55:42;;;;;;;34.35;17.95;;;4.80;99.90;;;;;;5030378;28;20045;-87
2022/01/24 07:58:09;;;;;;;32.08;17.42;;;4.80;99.90;;;;;;5047953;28;20847;-87
2022/01/24 08:00:36;;;;;;;32.95;17.95;;;4.90;99.90;;;;;;5036438;28;20059;-90
2022/01/24 08:03:01;;;;;;;34.53;19.38;;;4.90;99.90;;;;;;5050765;28;20068;-87
2022/01/24 08:05:28;;;;;;;29.80;17.50;;;4.90;99.90;;;;;;5053049;28;20497;-87
2022/01/24 08:07:54;;;;;;;36.45;18.83;;;4.90;99.90;;;;;;5038312;28;20048;-88
2022/01/24 08:10:20;;;;;;;36.83;19.08;;;4.90;99.90;;;;;;5012253;28;20119;-87
2022/01/24 08:12:46;;;;;;;37.45;18.52;;;4.80;99.90;;;;;;5050788;28;20051;-88
2022/01/24 08:15:16;;;;;;;32.00;18.73;;;4.90;99.90;;;;;;5015798;28;20068;-87
2022/01/24 08:17:45;;;;;;;36.08;19.45;;;4.90;99.90;;;;;;5051529;28;20041;-87
2022/01/24 08:20:13;;;;;;;38.15;19.88;;;4.90;99.90;;;;;;5047446;28;20052;-87
2022/01/24 08:22:40;;;;;;;43.45;21.45;;;4.90;99.90;;;;;;5018990;28;20444;-87
2022/01/24 08:25:06;;;;;;;49.13;24.63;;;4.90;99.90;;;;;;5033734;28;20636;-88
2022/01/24 08:27:33;;;;;;;46.80;23.42;;;5.00;99.90;;;;;;5047111;28;20049;-88
2022/01/24 08:30:00;;;;;;;48.05;24.95;;;5.00;99.90;;;;;;5049154;28;20060;-88
2022/01/24 08:32:26;;;;;;;48.05;25.42;;;5.00;99.90;;;;;;5032780;28;20078;-88
2022/01/24 08:34:52;;;;;;;50.88;24.08;;;5.00;99.90;;;;;;5032238;28;20131;-89
2022/01/24 08:37:17;;;;;;;46.78;24.38;;;5.00;99.90;;;;;;5030939;28;20048;-87
2022/01/24 08:39:44;;;;;;;52.20;25.05;;;5.10;99.90;;;;;;5048167;28;20055;-88
2022/01/24 08:47:23;;;;;;;57.15;27.98;;;5.10;99.90;;;;;;5050167;28;20472;-88
2022/01/24 08:49:49;;;;;;;61.17;28.55;;;5.10;99.90;;;;;;5033375;28;20052;-88
2022/01/24 08:52:15;;;;;;;66.07;29.73;;;5.10;99.90;;;;;;5050686;28;20041;-88
2022/01/24 08:54:41;;;;;;;64.63;29.35;;;5.20;99.90;;;;;;5033182;28;20048;-88
2022/01/24 08:57:07;;;;;;;69.95;31.65;;;5.20;99.90;;;;;;5048754;28;20068;-88
2022/01/24 08:59:33;;;;;;;64.20;30.20;;;5.20;99.90;;;;;;5024128;28;20506;-86
2022/01/24 09:02:00;;;;;;;69.38;31.63;;;5.20;99.90;;;;;;5008557;28;20141;-88
2022/01/24 09:04:25;;;;;;;74.72;32.90;;;5.20;99.90;;;;;;5009100;28;20042;-88
2022/01/24 09:06:52;;;;;;;71.43;32.30;;;5.20;99.90;;;;;;4970200;28;20445;-88
2022/01/24 09:09:19;;;;;;;76.10;34.58;;;5.20;99.90;;;;;;4982012;28;20041;-87
2022/01/24 09:11:46;;;;;;;76.53;35.97;;;5.30;99.90;;;;;;4998919;28;20038;-87
2022/01/24 09:14:12;;;;;;;83.35;36.42;;;5.30;99.90;;;;;;5025641;28;20049;-87
2022/01/24 09:16:38;;;;;;;74.88;35.30;;;5.30;99.90;;;;;;5017418;28;20041;-88
2022/01/24 09:19:06;;;;;;;81.57;36.45;;;5.30;99.90;;;;;;5034269;28;20057;-88
2022/01/24 09:21:34;;;;;;;80.45;37.13;;;5.30;99.90;;;;;;5033114;28;20483;-87
2022/01/24 09:24:01;;;;;;;81.57;37.60;;;5.30;99.90;;;;;;5017927;28;20120;-87
2022/01/24 09:26:27;;;;;;;80.97;36.67;;;5.30;99.90;;;;;;5016828;28;20085;-88
2022/01/24 09:28:53;;;;;;;84.40;38.03;;;5.30;99.90;;;;;;5015467;28;20049;-88
2022/01/24 09:31:21;;;;;;;79.90;37.10;;;5.30;99.90;;;;;;5017775;28;20060;-87
2022/01/24 09:33:46;;;;;;;80.38;37.50;;;5.40;99.90;;;;;;4965140;28;20057;-88
2022/01/24 09:36:13;;;;;;;82.13;36.30;;;5.40;99.90;;;;;;4978842;28;20045;-87
2022/01/24 09:38:39;;;;;;;79.78;36.42;;;5.40;99.90;;;;;;5033646;28;20379;-87
2022/01/24 09:41:10;;;;;;;81.22;36.92;;;5.40;99.90;;;;;;4983793;28;20055;-88
2022/01/24 09:43:35;;;;;;;83.15;36.95;;;5.40;99.90;;;;;;5002109;28;20045;-88
2022/01/24 09:46:03;;;;;;;83.22;37.17;;;5.40;99.90;;;;;;5016425;28;20049;-87
2022/01/24 09:48:31;;;;;;;77.65;37.67;;;5.40;99.90;;;;;;4984610;28;20045;-87
2022/01/24 09:50:57;;;;;;;79.18;37.55;;;5.40;99.90;;;;;;5009776;28;20052;-87
2022/01/24 09:53:25;;;;;;;87.22;39.35;;;5.50;99.90;;;;;;5004265;28;20046;-87
2022/01/24 09:55:52;;;;;;;79.30;36.70;;;5.50;99.90;;;;;;5000383;28;20042;-88
2022/01/24 09:58:20;;;;;;;73.18;36.55;;;5.50;99.90;;;;;;5038706;28;20064;-87
2022/01/24 10:00:46;;;;;;;69.93;34.13;;;5.60;99.90;;;;;;5053813;28;20509;-89
2022/01/24 10:03:13;;;;;;;55.63;28.77;;;5.60;99.90;;;;;;5036944;28;20097;-87
2022/01/24 10:05:50;;;;;;;54.22;28.08;;;5.60;99.90;;;;;;5036968;28;20106;-87
2022/01/24 10:08:16;;;;;;;53.47;25.55;;;5.70;99.90;;;;;;5066695;28;20038;-89
2022/01/24 10:10:50;;;;;;;51.70;27.35;;;5.60;99.90;;;;;;5040132;28;20407;-87
2022/01/24 10:16:31;;;;;;;53.95;28.13;;;5.60;99.90;;;;;;5048337;28;20045;-88
2022/01/24 10:19:20;;;;;;;52.22;27.77;;;5.60;99.90;;;;;;5034699;28;20057;-87
2022/01/24 10:21:50;;;;;;;56.65;29.80;;;5.70;99.90;;;;;;5028368;28;20071;-87
2022/01/24 10:24:43;;;;;;;57.35;31.05;;;5.70;99.90;;;;;;5049832;28;20041;-88
2022/01/24 10:27:16;;;;;;;57.63;30.85;;;5.70;99.90;;;;;;5038819;28;20111;-88
2022/01/24 10:29:58;;;;;;;61.72;31.40;;;5.80;99.90;;;;;;5052604;28;20057;-87
2022/01/24 10:32:39;;;;;;;65.53;33.47;;;5.80;99.90;;;;;;5028682;28;20045;-87
2022/01/24 10:35:45;;;;;;;65.82;33.33;;;5.80;99.90;;;;;;5052072;28;20175;-87
2022/01/24 10:38:29;;;;;;;65.00;33.92;;;5.80;99.90;;;;;;5052607;28;20621;-88
2022/01/24 10:43:33;;;;;;;66.00;33.78;;;5.80;99.90;;;;;;5052955;28;20128;-88
2022/01/24 10:45:59;;;;;;;66.00;33.85;;;5.80;99.90;;;;;;5035033;28;20045;-88
2022/01/24 10:48:29;;;;;;;70.70;37.17;;;5.80;99.90;;;;;;5033495;28;20044;-88
2022/01/24 10:51:11;;;;;;;73.13;35.75;;;5.80;99.90;;;;;;5054126;28;20089;-89
2022/01/24 10:53:42;;;;;;;74.68;37.20;;;5.80;99.90;;;;;;5058738;28;20037;-88
2022/01/24 10:56:28;;;;;;;74.85;37.80;;;5.90;99.90;;;;;;5045190;28;20059;-88
2022/01/24 10:59:03;;;;;;;74.03;37.88;;;5.90;99.90;;;;;;5045872;28;20106;-89
2022/01/24 11:01:29;;;;;;;75.22;38.40;;;5.90;99.90;;;;;;5029545;28;20061;-88
2022/01/24 11:04:04;;;;;;;71.78;36.15;;;5.90;99.90;;;;;;5017583;28;20048;-90
2022/01/24 11:06:33;;;;;;;72.30;36.15;;;5.90;99.90;;;;;;5033292;28;20058;-89
2022/01/24 11:09:22;;;;;;;75.18;38.08;;;5.90;99.90;;;;;;5051242;28;20166;-87
2022/01/24 11:11:56;;;;;;;75.00;38.33;;;5.90;99.90;;;;;;5050938;28;20429;-87
2022/01/24 11:14:25;;;;;;;69.28;36.75;;;5.90;99.90;;;;;;5033830;28;20053;-88
2022/01/24 11:16:52;;;;;;;79.20;39.67;;;5.90;99.90;;;;;;5041969;28;20403;-88
2022/01/24 11:19:27;;;;;;;78.28;37.92;;;5.90;99.90;;;;;;5059350;28;20049;-87
2022/01/24 11:21:54;;;;;;;78.57;40.00;;;5.90;99.90;;;;;;5051969;28;20049;-88
2022/01/24 11:24:27;;;;;;;77.95;37.90;;;5.90;99.90;;;;;;5051747;28;20295;-87
2022/01/24 11:26:53;;;;;;;77.80;39.55;;;5.90;99.90;;;;;;5043160;28;20048;-87
2022/01/24 11:29:20;;;;;;;73.78;38.17;;;5.90;99.90;;;;;;5031707;28;20045;-88
2022/01/24 11:32:22;;;;;;;78.13;37.55;;;5.90;99.90;;;;;;5039345;28;20041;-87
2022/01/24 11:34:50;;;;;;;75.55;38.90;;;5.90;99.90;;;;;;5047199;28;20040;-87
2022/01/24 11:37:38;;;;;;;70.43;35.28;;;5.90;99.90;;;;;;5029688;28;20053;-88
2022/01/24 11:40:10;;;;;;;75.35;38.50;;;5.80;99.90;;;;;;5040433;28;20056;-88
2022/01/24 11:42:36;;;;;;;76.93;39.47;;;5.90;99.90;;;;;;5025518;28;20094;-87
2022/01/24 11:45:13;;;;;;;75.95;37.13;;;5.90;99.90;;;;;;5013671;28;20528;-89
2022/01/24 11:47:40;;;;;;;77.00;38.33;;;5.80;99.90;;;;;;5045897;28;20390;-87
2022/01/24 11:50:24;;;;;;;73.65;38.67;;;5.80;99.90;;;;;;5025653;28;20055;-87
2022/01/24 11:52:52;;;;;;;70.72;35.60;;;5.90;99.90;;;;;;5042643;28;20041;-87
2022/01/24 11:55:34;;;;;;;74.40;39.00;;;5.80;99.90;;;;;;5049100;28;20049;-88
2022/01/24 11:58:07;;;;;;;73.10;39.53;;;5.90;99.90;;;;;;5045293;28;20053;-91
2022/01/24 12:00:44;;;;;;;75.82;39.05;;;5.90;99.90;;;;;;5034654;28;20059;-87
2022/01/24 12:03:14;;;;;;;77.05;39.83;;;5.90;99.90;;;;;;5042963;28;20249;-88
2022/01/24 12:05:44;;;;;;;74.63;39.45;;;5.90;99.90;;;;;;5064986;28;20482;-87
2022/01/24 12:08:12;;;;;;;75.25;39.58;;;5.80;99.90;;;;;;5032703;28;20045;-87
2022/01/24 12:10:42;;;;;;;78.88;40.40;;;5.90;99.90;;;;;;5050375;28;20041;-86
2022/01/24 12:13:15;;;;;;;71.50;38.65;;;5.90;99.90;;;;;;5045551;28;20048;-86
2022/01/24 12:15:44;;;;;;;74.72;37.67;;;5.90;99.90;;;;;;5047190;28;20049;-87
2022/01/24 12:18:28;;;;;;;82.57;40.25;;;5.80;99.90;;;;;;5031048;28;20449;-88
2022/01/24 12:21:43;;;;;;;76.50;38.50;;;5.80;99.90;;;;;;5066718;28;20048;-86
2022/01/24 12:24:14;;;;;;;77.43;39.67;;;5.90;99.90;;;;;;5014496;28;20045;-86
2022/01/24 12:26:42;;;;;;;68.30;35.92;;;5.90;99.90;;;;;;5047771;28;20388;-87
2022/01/24 12:29:08;;;;;;;71.88;36.22;;;5.80;99.90;;;;;;5052294;28;20043;-87
2022/01/24 12:31:59;;;;;;;70.22;36.25;;;5.80;99.90;;;;;;5056365;28;20049;-87
2022/01/24 12:34:36;;;;;;;62.35;34.63;;;5.80;99.90;;;;;;5024351;28;20068;-87
2022/01/24 12:37:10;;;;;;;71.38;36.10;;;5.80;99.90;;;;;;5040899;28;20053;-89
2022/01/24 12:39:47;;;;;;;71.47;36.25;;;5.80;99.90;;;;;;5029065;28;20053;-87
2022/01/24 12:42:28;;;;;;;72.78;37.65;;;5.70;99.90;;;;;;5039968;28;20411;-87
2022/01/24 12:47:39;;;;;;;71.78;36.78;;;5.70;99.90;;;;;;5039447;28;20081;-87
2022/01/24 12:50:07;;;;;;;70.25;35.05;;;5.70;99.90;;;;;;5015920;28;20087;-88
2022/01/24 12:52:32;;;;;;;78.82;38.20;;;5.70;99.90;;;;;;5059893;28;20128;-88
2022/01/24 12:55:00;;;;;;;61.55;33.60;;;5.70;99.90;;;;;;5036506;28;20136;-87
2022/01/24 12:57:32;;;;;;;54.10;29.45;;;5.70;99.90;;;;;;5032466;28;20512;-88
2022/01/24 13:00:07;;;;;;;56.50;30.67;;;5.70;99.90;;;;;;5047624;28;20725;-86
2022/01/24 13:02:36;;;;;;;62.75;32.97;;;5.70;99.90;;;;;;5047630;28;20135;-86
2022/01/24 13:05:04;;;;;;;50.45;26.70;;;5.70;99.90;;;;;;5030553;28;20052;-86
2022/01/24 13:07:31;;;;;;;47.88;28.10;;;5.70;99.90;;;;;;5024800;28;20579;-86
2022/01/24 13:10:09;;;;;;;45.58;25.52;;;5.70;99.90;;;;;;5031066;28;20118;-87
2022/01/24 13:12:36;;;;;;;48.78;27.65;;;5.70;99.90;;;;;;5050673;28;20129;-86
2022/01/24 13:15:06;;;;;;;46.35;27.10;;;5.70;99.90;;;;;;5028707;28;20096;-88
2022/01/24 13:23:08;;;;;;;50.60;26.70;;;5.70;99.90;;;;;;5046658;28;20140;-86
2022/01/24 13:25:37;;;;;;;42.05;23.60;;;5.60;99.90;;;;;;5045282;28;20041;-84
2022/01/24 13:28:09;;;;;;;43.97;25.75;;;5.60;99.90;;;;;;5050402;28;20041;-87
2022/01/24 13:30:37;;;;;;;48.47;25.92;;;5.60;99.90;;;;;;5069357;28;20052;-87
2022/01/24 13:33:08;;;;;;;44.58;24.95;;;5.60;99.90;;;;;;5070763;28;20056;-86
2022/01/24 13:35:39;;;;;;;44.47;25.27;;;5.60;99.90;;;;;;5050262;28;20099;-87
2022/01/24 13:38:11;;;;;;;46.42;25.83;;;5.60;99.90;;;;;;5048279;28;20050;-86
2022/01/24 13:43:36;;;;;;;42.15;24.73;;;5.60;99.90;;;;;;5035223;28;20483;-87
2022/01/24 13:46:10;;;;;;;43.67;25.33;;;5.60;99.90;;;;;;5050078;28;20495;-87
2022/01/24 13:48:44;;;;;;;47.50;26.73;;;5.60;99.90;;;;;;5033718;28;20501;-86
2022/01/24 13:51:13;;;;;;;47.65;26.02;;;5.60;99.90;;;;;;5044277;28;20041;-90
2022/01/24 13:53:42;;;;;;;43.47;25.70;;;5.60;99.90;;;;;;5053980;28;20037;-86
2022/01/24 13:56:18;;;;;;;50.78;25.65;;;5.50;99.90;;;;;;5040086;28;20052;-86
2022/01/24 13:59:01;;;;;;;;;;;5.50;99.90;;;;;;5036269;28;20132;-86
2022/01/24 14:01:27;;;;;;;48.78;26.08;;;5.40;99.90;;;;;;5051840;28;20007;-84
2022/01/24 14:03:58;;;;;;;55.17;28.17;;;5.50;99.90;;;;;;5051142;28;20045;-85
2022/01/24 14:06:24;;;;;;;60.50;30.70;;;5.50;99.90;;;;;;5079615;28;20516;-86
2022/01/24 14:09:06;;;;;;;57.03;30.35;;;5.50;99.90;;;;;;5027470;28;20059;-85
2022/01/24 14:11:32;;;;;;;58.55;31.15;;;5.50;99.90;;;;;;5049523;28;20049;-86
2022/01/24 14:14:04;;;;;;;60.22;32.33;;;5.50;99.90;;;;;;5053719;28;20060;-86
2022/01/24 14:19:35;;;;;;;60.10;31.67;;;5.50;99.90;;;;;;5031315;28;20516;-86
2022/01/24 14:22:09;;;;;;;63.60;32.42;;;5.40;99.90;;;;;;5043879;28;20037;-88
2022/01/24 14:25:04;;;;;;;57.95;31.50;;;5.50;99.90;;;;;;5035730;28;20095;-87
2022/01/24 14:27:47;;;;;;;55.65;28.25;;;5.40;99.90;;;;;;5027924;28;20053;-88
2022/01/24 14:30:15;;;;;;;55.28;30.45;;;5.40;99.90;;;;;;5052563;28;20049;-87
2022/01/24 14:33:03;;;;;;;55.65;30.73;;;5.30;99.90;;;;;;5053268;28;20055;-87
2022/01/24 14:35:35;;;;;;;59.67;33.30;;;5.30;99.90;;;;;;5065524;28;20179;-87
2022/01/24 14:38:01;;;;;;;62.47;33.17;;;5.30;99.90;;;;;;5066932;28;20501;-87
2022/01/24 14:40:47;;;;;;;59.25;31.90;;;5.30;99.90;;;;;;5035520;28;20037;-87
2022/01/24 14:46:12;;;;;;;56.92;30.27;;;5.30;99.90;;;;;;5047805;28;20081;-87
2022/01/24 14:48:45;;;;;;;57.17;30.98;;;5.30;99.90;;;;;;5065850;28;20077;-85